createdAt,value
2023-02-26T00:01:14.612Z,0.68
2023-02-26T00:11:19.392Z,0.54
2023-02-26T00:21:24.876Z,0.63
2023-02-26T00:31:29.495Z,0.51
2023-02-26T00:41:32.693Z,0.38
2023-02-26T00:51:45.761Z,0.19
2023-02-26T01:01:49.285Z,0.16
2023-02-26T01:11:54.055Z,0.08
2023-02-26T01:22:04.674Z,0.06
2023-02-26T01:32:15.223Z,0.08
2023-02-26T01:42:22.713Z,0.03
2023-02-26T01:53:01.091Z,0.08
2023-02-26T02:03:05.632Z,0.02
2023-02-26T02:13:17.708Z,-0.05
2023-02-26T02:23:28.524Z,-0.00
2023-02-26T02:33:37.713Z,-0.21
2023-02-26T02:43:43.213Z,-0.15
2023-02-26T02:53:52.141Z,-0.25
2023-02-26T03:03:59.394Z,-0.34
2023-02-26T03:14:04.251Z,-0.42
2023-02-26T03:24:11.365Z,-0.49
2023-02-26T03:34:23.580Z,-0.41
2023-02-26T03:44:29.490Z,-0.50
2023-02-26T03:54:36.682Z,-0.45
2023-02-26T04:04:50.649Z,-0.40
2023-02-26T04:14:55.630Z,-0.38
2023-02-26T04:24:58.323Z,-0.41
2023-02-26T04:35:02.309Z,-0.40
2023-02-26T04:45:05.501Z,-0.44
2023-02-26T04:55:10.098Z,-0.45
2023-02-26T05:05:12.773Z,-0.49
2023-02-26T05:15:16.825Z,-0.52
2023-02-26T05:25:19.608Z,-0.49
2023-02-26T05:35:23.597Z,-0.52
2023-02-26T05:45:26.318Z,-0.58
2023-02-26T05:55:30.332Z,-0.68
2023-02-26T06:05:32.982Z,-0.88
2023-02-26T06:15:37.011Z,-0.94
2023-02-26T06:25:39.695Z,-0.96
2023-02-26T06:35:43.619Z,-1.05
2023-02-26T06:45:46.457Z,-0.90
2023-02-26T06:55:52.762Z,-0.86
2023-02-26T07:05:55.411Z,-0.76
2023-02-26T07:15:59.451Z,-0.53
2023-02-26T07:26:02.220Z,-0.10
2023-02-26T07:36:06.901Z,0.59
2023-02-26T07:46:09.889Z,1.35
2023-02-26T07:56:14.016Z,1.80
2023-02-26T08:06:16.646Z,2.19
2023-02-26T08:16:20.716Z,1.92
2023-02-26T08:26:23.867Z,2.03
2023-02-26T08:36:28.497Z,2.34
2023-02-26T08:46:31.418Z,2.62
2023-02-26T08:56:35.443Z,2.87
2023-02-26T09:06:38.179Z,3.11
2023-02-26T09:16:42.183Z,3.43
2023-02-26T09:26:44.791Z,3.72
2023-02-26T09:36:48.758Z,4.05
2023-02-26T09:47:02.833Z,4.22
2023-02-26T09:57:11.710Z,4.54
2023-02-26T10:07:21.474Z,5.02
2023-02-26T10:17:33.177Z,5.32
2023-02-26T10:27:47.967Z,5.32
2023-02-26T10:37:57.260Z,5.46
2023-02-26T10:48:11.819Z,5.48
2023-02-26T10:58:18.841Z,5.82
2023-02-26T11:08:27.481Z,5.92
2023-02-26T11:18:42.100Z,6.42
2023-02-26T11:28:46.824Z,7.28
2023-02-26T11:38:57.429Z,20.06
2023-02-26T11:49:02.175Z,25.49
2023-02-26T11:59:17.351Z,27.99
2023-02-26T12:09:20.683Z,24.44
2023-02-26T12:19:37.829Z,16.00
2023-02-26T12:29:54.193Z,21.19
2023-02-26T12:40:23.887Z,23.27
2023-02-26T12:50:40.232Z,21.22
2023-02-26T13:00:58.633Z,19.14
2023-02-26T13:11:13.172Z,15.60
2023-02-26T13:21:22.014Z,19.39
2023-02-26T13:31:30.173Z,15.45
2023-02-26T13:41:45.382Z,14.07
2023-02-26T13:51:49.963Z,15.28
2023-02-26T14:01:58.192Z,13.90
2023-02-26T14:12:02.153Z,14.75
2023-02-26T14:22:21.100Z,15.06
2023-02-26T14:32:30.977Z,12.06
2023-02-26T14:42:38.162Z,13.86
2023-02-26T14:52:52.923Z,12.69
2023-02-26T15:03:36.784Z,12.52
2023-02-26T15:13:58.590Z,10.90
2023-02-26T15:24:03.580Z,10.62
2023-02-26T15:34:06.302Z,9.65
2023-02-26T15:44:13.918Z,8.79
2023-02-26T15:54:20.202Z,7.53
2023-02-26T16:04:24.683Z,7.18
2023-02-26T16:14:30.708Z,6.63
2023-02-26T16:24:35.645Z,6.40
2023-02-26T16:34:43.185Z,5.65
2023-02-26T16:44:50.132Z,5.09
2023-02-26T16:55:04.054Z,4.74
2023-02-26T17:05:16.091Z,4.44
2023-02-26T17:15:21.098Z,4.15
2023-02-26T17:25:28.667Z,4.10
2023-02-26T17:35:31.683Z,4.19
2023-02-26T17:45:36.542Z,4.26
2023-02-26T17:55:40.153Z,4.00
2023-02-26T18:05:44.557Z,3.98
2023-02-26T18:15:47.512Z,3.57
2023-02-26T18:25:53.666Z,3.61
2023-02-26T18:35:58.362Z,3.47
2023-02-26T18:46:02.421Z,3.12
2023-02-26T18:56:05.396Z,2.86
2023-02-26T19:06:09.738Z,2.93
2023-02-26T19:16:12.434Z,2.96
2023-02-26T19:26:16.517Z,3.10
2023-02-26T19:36:21.777Z,3.05
2023-02-26T19:46:27.028Z,3.10
2023-02-26T19:56:29.770Z,2.89
2023-02-26T20:06:34.110Z,2.83
2023-02-26T20:16:36.746Z,2.67
2023-02-26T20:26:41.133Z,2.50
2023-02-26T20:36:45.137Z,2.25
2023-02-26T20:46:49.281Z,2.16
2023-02-26T20:56:52.152Z,2.11
2023-02-26T21:07:15.138Z,1.93
2023-02-26T21:17:17.754Z,1.73
2023-02-26T21:27:21.871Z,1.52
2023-02-26T21:37:24.500Z,1.53
2023-02-26T21:47:28.500Z,1.46
2023-02-26T21:57:31.452Z,1.52
2023-02-26T22:07:35.722Z,1.65
2023-02-26T22:17:38.369Z,1.56
2023-02-26T22:27:42.354Z,1.38
2023-02-26T22:37:45.683Z,1.27
2023-02-26T22:47:50.556Z,0.89
2023-02-26T22:57:53.263Z,0.54
2023-02-26T23:07:57.215Z,0.50
2023-02-26T23:17:59.838Z,0.47
2023-02-26T23:28:03.871Z,0.24
2023-02-26T23:38:07.390Z,0.05
2023-02-26T23:48:11.340Z,0.08
2023-02-26T23:58:14.479Z,0.02
